Time;durP1;ratioP1;P1;durP2;ratioP2;P2;SDS_P1;SDS_P2;PMS_P1;PMS_P2;Temp;Humidity;BMP_temperature;BMP_pressure;BME280_temperature;BME280_humidity;BME280_pressure;Samples;Min_cycle;Max_cycle;Signal;HPM_P1;HPM_P2
2022/03/22 00:02:02;;;;;;;36.97;27.05;;;5.50;99.90;;;;;;5024947;28;20054;-83
2022/03/22 00:04:29;;;;;;;34.42;24.20;;;5.40;99.90;;;;;;5024598;28;20034;-84
2022/03/22 00:06:54;;;;;;;34.58;22.52;;;5.30;99.90;;;;;;5056840;28;20050;-84
2022/03/22 00:09:21;;;;;;;37.28;23.85;;;5.10;99.90;;;;;;5024223;28;20044;-84
2022/03/22 00:11:50;;;;;;;35.55;26.33;;;5.10;99.90;;;;;;5025122;28;20045;-83
2022/03/22 00:14:17;;;;;;;41.53;26.52;;;5.10;99.90;;;;;;5024117;28;20072;-84
2022/03/22 00:16:43;;;;;;;39.70;27.60;;;5.10;99.90;;;;;;5023138;28;20112;-84
2022/03/22 00:19:08;;;;;;;38.28;26.55;;;5.00;99.90;;;;;;5024648;28;20073;-85
2022/03/22 00:21:37;;;;;;;43.38;30.42;;;5.00;99.90;;;;;;5057225;28;20053;-84
2022/03/22 00:24:04;;;;;;;51.83;31.50;;;4.90;99.90;;;;;;5056209;28;20066;-84
2022/03/22 00:26:30;;;;;;;47.75;33.25;;;5.10;99.90;;;;;;5024669;28;20132;-83
2022/03/22 00:28:57;;;;;;;42.72;29.35;;;5.10;99.90;;;;;;5023483;28;20038;-84
2022/03/22 00:31:23;;;;;;;40.03;27.05;;;5.10;99.90;;;;;;5023618;28;20048;-84
2022/03/22 00:33:49;;;;;;;37.00;25.85;;;5.20;99.90;;;;;;5022767;28;20046;-83
2022/03/22 00:36:14;;;;;;;39.08;27.00;;;5.10;99.90;;;;;;5025792;28;20081;-84
2022/03/22 00:38:40;;;;;;;40.17;25.50;;;4.80;99.90;;;;;;5011824;28;20054;-84
2022/03/22 00:41:06;;;;;;;39.15;25.45;;;4.70;99.90;;;;;;5023304;28;20081;-83
2022/03/22 00:43:34;;;;;;;31.50;23.10;;;4.70;99.90;;;;;;5023375;28;20075;-85
2022/03/22 00:46:01;;;;;;;34.70;23.95;;;4.70;99.90;;;;;;5035180;28;20046;-84
2022/03/22 00:48:27;;;;;;;35.42;24.13;;;4.60;99.90;;;;;;5056176;28;20092;-86
2022/03/22 00:50:53;;;;;;;37.97;27.45;;;4.60;99.90;;;;;;5057283;28;20054;-84
2022/03/22 00:53:19;;;;;;;34.13;25.42;;;4.60;99.90;;;;;;5023644;28;20117;-84
2022/03/22 00:55:46;;;;;;;44.22;31.30;;;4.70;99.90;;;;;;5016490;28;20050;-84
2022/03/22 00:58:12;;;;;;;53.90;36.08;;;4.70;99.90;;;;;;5022572;28;20046;-76
2022/03/22 01:00:38;;;;;;;47.17;32.00;;;4.80;99.90;;;;;;5052570;28;20038;-76
2022/03/22 01:03:06;;;;;;;43.13;29.42;;;4.90;99.90;;;;;;5025027;28;20513;-75
2022/03/22 01:05:32;;;;;;;41.90;29.20;;;4.70;99.90;;;;;;5056529;28;20486;-75
2022/03/22 01:08:07;;;;;;;38.75;28.52;;;4.80;99.90;;;;;;5053273;28;20060;-74
2022/03/22 01:10:37;;;;;;;47.05;33.28;;;4.80;99.90;;;;;;5014192;28;20042;-74
2022/03/22 01:13:04;;;;;;;44.30;30.65;;;4.90;99.90;;;;;;5055668;28;20046;-73
2022/03/22 01:15:33;;;;;;;32.28;23.63;;;4.90;99.90;;;;;;5022767;28;20046;-74
2022/03/22 01:18:03;;;;;;;37.50;24.98;;;4.80;99.90;;;;;;5023411;28;20075;-74
2022/03/22 01:20:31;;;;;;;33.42;22.85;;;4.50;99.90;;;;;;5056478;28;20092;-74
2022/03/22 01:22:57;;;;;;;36.20;24.55;;;4.40;99.90;;;;;;5051811;28;20046;-73
2022/03/22 01:25:25;;;;;;;34.95;24.73;;;4.40;99.90;;;;;;5023003;28;20150;-74
2022/03/22 01:27:52;;;;;;;29.83;21.30;;;4.40;99.90;;;;;;5055590;28;20046;-74
2022/03/22 01:30:19;;;;;;;31.33;24.17;;;4.40;99.90;;;;;;5024626;28;20057;-74
2022/03/22 01:32:46;;;;;;;31.35;23.17;;;4.40;99.90;;;;;;5022189;28;20053;-74
2022/03/22 01:35:12;;;;;;;28.85;21.73;;;4.40;99.90;;;;;;5023727;28;20061;-74
2022/03/22 01:37:38;;;;;;;40.42;30.58;;;4.30;99.90;;;;;;5056371;28;20054;-74
2022/03/22 01:40:06;;;;;;;46.65;32.13;;;4.50;99.90;;;;;;5051750;28;20074;-75
2022/03/22 01:42:33;;;;;;;47.55;30.75;;;4.50;99.90;;;;;;5022989;28;20049;-75
2022/03/22 01:44:59;;;;;;;51.10;34.05;;;4.40;99.90;;;;;;5022572;28;20954;-75
2022/03/22 01:47:25;;;;;;;40.95;29.20;;;4.50;99.90;;;;;;5059996;28;20080;-75
2022/03/22 01:49:52;;;;;;;37.38;26.70;;;4.60;99.90;;;;;;5024870;28;20037;-75
2022/03/22 01:52:21;;;;;;;31.13;23.20;;;4.40;99.90;;;;;;5026527;28;20050;-75
2022/03/22 01:54:50;;;;;;;33.92;25.48;;;4.40;99.90;;;;;;5022975;28;20050;-75
2022/03/22 01:57:24;;;;;;;33.75;24.08;;;4.40;99.90;;;;;;5059748;28;20046;-75
2022/03/22 01:59:51;;;;;;;34.22;24.70;;;4.40;99.90;;;;;;5028184;28;20049;-75
2022/03/22 02:07:48;;;;;;;38.75;25.17;;;4.50;99.90;;;;;;5022776;28;20111;-76
2022/03/22 02:10:14;;;;;;;42.17;28.60;;;4.50;99.90;;;;;;5009840;28;20056;-76
2022/03/22 02:12:44;;;;;;;36.30;25.85;;;4.40;99.90;;;;;;5022938;28;20037;-76
2022/03/22 02:15:12;;;;;;;47.97;31.08;;;4.40;99.90;;;;;;5025940;28;20053;-76
2022/03/22 02:17:39;;;;;;;52.25;33.33;;;4.50;99.90;;;;;;5022621;28;20046;-75
2022/03/22 02:20:05;;;;;;;52.95;34.13;;;4.60;99.90;;;;;;5025422;28;20050;-76
2022/03/22 02:23:01;;;;;;;58.72;37.83;;;4.70;99.90;;;;;;5025560;28;20037;-76
2022/03/22 02:25:26;;;;;;;44.63;30.35;;;5.10;99.90;;;;;;4995981;28;20140;-76
2022/03/22 02:27:52;;;;;;;50.75;32.47;;;4.80;99.90;;;;;;5040981;28;20050;-76
2022/03/22 02:30:19;;;;;;;48.25;33.38;;;4.70;99.90;;;;;;5029201;28;20065;-76
2022/03/22 02:32:56;;;;;;;43.50;30.25;;;4.60;99.90;;;;;;5058461;28;20497;-76
2022/03/22 02:35:23;;;;;;;48.20;32.03;;;4.70;99.90;;;;;;5059121;28;20105;-77
2022/03/22 02:37:49;;;;;;;46.60;31.30;;;4.70;99.90;;;;;;5040425;28;20145;-76
2022/03/22 02:40:16;;;;;;;50.72;34.22;;;4.70;99.90;;;;;;5058397;28;20057;-76
2022/03/22 02:42:50;;;;;;;46.97;32.25;;;4.70;99.90;;;;;;5057822;28;20037;-76
2022/03/22 02:45:18;;;;;;;44.88;32.72;;;4.70;99.90;;;;;;5059165;28;20763;-77
2022/03/22 02:47:44;;;;;;;49.20;32.53;;;4.70;99.90;;;;;;5058889;28;20057;-77
2022/03/22 02:50:11;;;;;;;46.05;33.30;;;4.60;99.90;;;;;;5021560;28;20054;-77
2022/03/22 02:52:38;;;;;;;45.90;32.05;;;4.50;99.90;;;;;;5025210;28;20057;-77
2022/03/22 02:55:06;;;;;;;53.05;35.08;;;4.60;99.90;;;;;;5037338;28;20042;-77
2022/03/22 02:57:32;;;;;;;48.85;32.45;;;4.60;99.90;;;;;;5024884;28;20048;-78
2022/03/22 02:59:58;;;;;;;41.22;28.05;;;4.60;99.90;;;;;;5023424;28;20069;-78
2022/03/22 03:02:24;;;;;;;41.00;29.00;;;4.50;99.90;;;;;;5026089;28;20046;-81
2022/03/22 03:04:50;;;;;;;49.33;30.83;;;4.40;99.90;;;;;;5058325;28;20049;-82
2022/03/22 03:07:16;;;;;;;44.50;31.33;;;4.50;99.90;;;;;;5055742;28;20057;-83
2022/03/22 03:09:41;;;;;;;49.35;31.75;;;4.40;99.90;;;;;;5025424;28;20045;-84
2022/03/22 03:12:08;;;;;;;43.67;31.02;;;4.10;99.90;;;;;;5009684;28;20050;-83
2022/03/22 03:14:39;;;;;;;56.90;34.15;;;4.20;99.90;;;;;;5025025;28;20053;-84
2022/03/22 03:17:10;;;;;;;44.67;31.10;;;4.30;99.90;;;;;;5041562;28;20053;-84
2022/03/22 03:19:37;;;;;;;48.58;31.77;;;4.30;99.90;;;;;;5057611;28;20513;-84
2022/03/22 03:22:04;;;;;;;43.05;27.23;;;4.40;99.90;;;;;;5025073;28;20049;-84
2022/03/22 03:24:30;;;;;;;41.65;28.30;;;4.30;99.90;;;;;;5055230;28;20053;-85
2022/03/22 03:26:56;;;;;;;43.28;28.63;;;4.10;99.90;;;;;;5048229;28;20054;-85
2022/03/22 03:29:23;;;;;;;38.13;28.15;;;3.90;99.90;;;;;;5036341;28;20058;-76
2022/03/22 03:31:49;;;;;;;40.28;28.45;;;3.70;99.90;;;;;;5054072;28;20058;-76
2022/03/22 03:34:15;;;;;;;45.85;31.38;;;3.70;99.90;;;;;;5057667;28;20046;-76
2022/03/22 03:36:41;;;;;;;47.38;32.80;;;3.90;99.90;;;;;;5040264;28;20049;-77
2022/03/22 03:39:08;;;;;;;51.92;33.92;;;4.10;99.90;;;;;;5026432;28;20046;-76
2022/03/22 03:47:09;;;;;;;44.72;29.60;;;4.20;99.90;;;;;;5025050;28;20080;-75
2022/03/22 03:49:49;;;;;;;44.35;30.45;;;4.00;99.90;;;;;;5023773;28;20081;-75
2022/03/22 03:52:20;;;;;;;41.42;28.13;;;3.90;99.90;;;;;;5024710;28;20105;-75
2022/03/22 03:54:46;;;;;;;38.85;27.40;;;4.00;99.90;;;;;;5024309;28;20113;-75
2022/03/22 03:57:13;;;;;;;33.95;25.52;;;3.80;99.90;;;;;;5023705;28;20050;-75
2022/03/22 03:59:39;;;;;;;36.10;26.40;;;3.90;99.90;;;;;;5034348;28;20050;-75
2022/03/22 04:02:08;;;;;;;44.50;29.90;;;3.90;99.90;;;;;;5039022;28;20191;-75
2022/03/22 04:04:35;;;;;;;46.35;31.60;;;3.90;99.90;;;;;;5057044;28;20053;-75
2022/03/22 04:07:02;;;;;;;45.65;31.63;;;4.00;99.90;;;;;;5023424;28;20050;-75
2022/03/22 04:09:28;;;;;;;47.30;32.00;;;4.10;99.90;;;;;;5055160;28;20072;-75
2022/03/22 04:11:54;;;;;;;41.58;29.27;;;4.10;99.90;;;;;;5055172;28;20105;-75
2022/03/22 04:14:19;;;;;;;36.35;25.73;;;4.00;99.90;;;;;;5022899;28;20069;-74
2022/03/22 04:16:46;;;;;;;35.35;25.85;;;4.10;99.90;;;;;;5057127;28;20038;-74
2022/03/22 04:19:12;;;;;;;37.13;25.75;;;4.10;99.90;;;;;;5055985;28;20049;-74
2022/03/22 04:21:39;;;;;;;35.97;24.50;;;3.90;99.90;;;;;;5056025;28;20450;-74
2022/03/22 04:24:07;;;;;;;33.88;23.77;;;3.90;99.90;;;;;;5021739;28;20049;-74
2022/03/22 04:26:38;;;;;;;29.08;20.38;;;3.90;99.90;;;;;;5017602;28;20129;-74
2022/03/22 04:34:36;;;;;;;30.35;22.48;;;4.10;99.90;;;;;;5057082;28;20122;-74
2022/03/22 04:37:02;;;;;;;32.90;23.13;;;4.10;99.90;;;;;;5056858;28;20046;-74
2022/03/22 04:39:30;;;;;;;31.55;23.10;;;4.10;99.90;;;;;;5022421;28;20057;-74
2022/03/22 04:41:57;;;;;;;29.67;22.45;;;4.10;99.90;;;;;;5022286;28;20072;-74
2022/03/22 04:44:28;;;;;;;32.55;22.45;;;4.00;99.90;;;;;;5038866;28;20069;-74
2022/03/22 04:46:58;;;;;;;32.25;22.83;;;4.10;99.90;;;;;;5024023;28;20054;-74
2022/03/22 04:49:25;;;;;;;32.83;24.35;;;3.80;99.90;;;;;;5056135;28;20050;-74
2022/03/22 04:57:20;;;;;;;21.67;17.10;;;4.00;99.90;;;;;;5023265;28;20473;-74
2022/03/22 04:59:47;;;;;;;23.83;18.45;;;3.90;99.90;;;;;;5027029;28;20042;-74
2022/03/22 05:02:13;;;;;;;25.20;18.73;;;4.10;99.90;;;;;;5023727;28;20045;-74
2022/03/22 05:04:39;;;;;;;26.90;19.13;;;4.00;99.90;;;;;;5022517;28;20061;-74
2022/03/22 05:07:05;;;;;;;23.98;18.63;;;4.10;99.90;;;;;;5023798;28;20046;-74
2022/03/22 05:09:31;;;;;;;28.50;19.90;;;4.10;99.90;;;;;;5022419;28;20092;-74
2022/03/22 05:11:58;;;;;;;28.23;21.73;;;4.10;99.90;;;;;;5022578;28;20077;-74
2022/03/22 05:14:24;;;;;;;26.38;19.33;;;3.90;99.90;;;;;;5054564;28;20056;-74
2022/03/22 05:16:50;;;;;;;28.13;20.67;;;3.90;99.90;;;;;;5022862;28;20152;-74
2022/03/22 05:19:17;;;;;;;29.52;21.25;;;4.00;99.90;;;;;;5056027;28;20046;-74
2022/03/22 05:21:44;;;;;;;29.77;21.73;;;4.10;99.90;;;;;;5059338;28;20064;-74
2022/03/22 05:24:10;;;;;;;35.28;24.92;;;3.90;99.90;;;;;;5027662;28;20056;-74
2022/03/22 05:26:35;;;;;;;32.22;24.58;;;3.90;99.90;;;;;;5060316;28;20050;-74
2022/03/22 05:29:05;;;;;;;34.05;25.73;;;3.80;99.90;;;;;;5026786;28;20060;-74
2022/03/22 05:31:32;;;;;;;41.30;27.33;;;3.80;99.90;;;;;;5026488;28;20050;-74
2022/03/22 05:33:59;;;;;;;41.55;27.00;;;3.80;99.90;;;;;;5060018;28;20049;-77
2022/03/22 05:36:25;;;;;;;37.78;26.08;;;3.90;99.90;;;;;;5033475;28;20049;-75
2022/03/22 05:38:52;;;;;;;40.47;27.73;;;4.00;99.90;;;;;;5046137;28;20163;-77
2022/03/22 05:41:18;;;;;;;43.97;29.95;;;3.90;99.90;;;;;;5045086;28;20044;-78
2022/03/22 05:43:43;;;;;;;41.88;28.75;;;3.80;99.90;;;;;;5038005;28;20476;-76
2022/03/22 05:46:09;;;;;;;45.03;30.10;;;3.80;99.90;;;;;;5068571;28;20053;-76
2022/03/22 05:48:38;;;;;;;43.45;29.05;;;3.90;99.90;;;;;;5040421;28;20045;-73
2022/03/22 05:51:04;;;;;;;47.88;30.60;;;3.90;99.90;;;;;;5069740;28;20050;-71
2022/03/22 05:53:29;;;;;;;39.90;28.98;;;3.90;99.90;;;;;;5039473;28;20104;-71
2022/03/22 05:55:55;;;;;;;41.65;28.27;;;3.90;99.90;;;;;;5039940;28;20080;-71
2022/03/22 05:58:21;;;;;;;45.20;31.17;;;4.00;99.90;;;;;;5039444;28;20048;-71
2022/03/22 06:00:47;;;;;;;44.63;31.85;;;3.90;99.90;;;;;;5082142;28;20118;-71
2022/03/22 06:03:13;;;;;;;44.40;29.02;;;3.90;99.90;;;;;;5071657;28;20071;-72
2022/03/22 06:05:39;;;;;;;42.80;29.42;;;4.10;99.90;;;;;;5047698;28;20336;-71
2022/03/22 06:08:05;;;;;;;52.22;34.80;;;4.10;99.90;;;;;;5038218;28;20065;-71
2022/03/22 06:10:31;;;;;;;48.15;31.98;;;4.10;99.90;;;;;;5061471;28;20059;-72
2022/03/22 06:12:57;;;;;;;49.78;33.00;;;4.00;99.90;;;;;;5039947;28;20452;-71
2022/03/22 06:15:25;;;;;;;42.67;29.75;;;4.10;99.90;;;;;;5078970;28;20040;-72
2022/03/22 06:18:00;;;;;;;44.65;30.48;;;4.00;99.90;;;;;;5020998;28;20156;-79
2022/03/22 06:20:34;;;;;;;43.75;29.77;;;4.00;99.90;;;;;;5045139;28;20631;-79
2022/03/22 06:23:02;;;;;;;46.47;31.08;;;4.00;99.90;;;;;;5024513;28;20087;-76
2022/03/22 06:25:28;;;;;;;47.13;33.72;;;4.10;99.90;;;;;;5047810;28;20504;-75
2022/03/22 06:27:55;;;;;;;53.22;34.13;;;4.10;99.90;;;;;;5019674;28;20061;-75
2022/03/22 06:30:21;;;;;;;52.00;33.75;;;4.00;99.90;;;;;;5056133;28;20064;-75
2022/03/22 06:32:48;;;;;;;45.13;31.10;;;4.10;99.90;;;;;;5005861;28;20103;-76
2022/03/22 06:35:16;;;;;;;48.15;33.00;;;4.20;99.90;;;;;;5067903;28;20082;-77
2022/03/22 06:37:43;;;;;;;48.45;33.25;;;4.30;99.90;;;;;;5024125;28;20053;-77
2022/03/22 06:40:10;;;;;;;49.35;33.65;;;4.40;99.90;;;;;;5052307;28;20300;-78
2022/03/22 06:42:37;;;;;;;51.97;35.72;;;4.50;99.90;;;;;;5047344;28;20046;-77
2022/03/22 06:45:05;;;;;;;50.42;33.83;;;4.50;99.90;;;;;;5041769;28;20056;-76
2022/03/22 06:47:31;;;;;;;54.40;34.60;;;4.60;99.90;;;;;;5042327;28;20154;-83
2022/03/22 06:49:57;;;;;;;54.72;34.63;;;4.70;99.90;;;;;;5040276;28;20052;-78
2022/03/22 06:52:23;;;;;;;47.22;33.60;;;4.70;99.90;;;;;;5042430;28;20083;-71
2022/03/22 06:54:48;;;;;;;53.40;34.92;;;4.70;99.90;;;;;;5039576;28;20048;-71
2022/03/22 06:57:15;;;;;;;49.80;34.72;;;4.60;99.90;;;;;;5024362;28;20054;-71
2022/03/22 06:59:41;;;;;;;53.15;36.45;;;4.70;99.90;;;;;;5028944;28;20042;-71
2022/03/22 07:02:08;;;;;;;57.15;38.10;;;4.90;99.90;;;;;;5016810;28;20044;-71
2022/03/22 07:04:33;;;;;;;58.92;38.47;;;4.90;99.90;;;;;;5017487;28;20049;-71
2022/03/22 07:07:00;;;;;;;58.58;37.15;;;5.00;99.90;;;;;;5038031;28;20523;-71
2022/03/22 07:09:25;;;;;;;56.95;39.05;;;5.00;99.90;;;;;;5046087;28;20049;-71
2022/03/22 07:11:52;;;;;;;60.60;40.50;;;5.20;99.90;;;;;;5012375;28;20054;-71
2022/03/22 07:14:19;;;;;;;55.33;38.00;;;5.20;99.90;;;;;;5046888;28;20067;-71
2022/03/22 07:16:48;;;;;;;53.75;37.78;;;5.30;99.90;;;;;;5037457;28;20053;-71
2022/03/22 07:19:19;;;;;;;57.60;40.10;;;5.40;99.90;;;;;;5015917;28;20051;-71
2022/03/22 07:21:44;;;;;;;;;;;5.50;99.90;;;;;;5048947;28;20136;-67
2022/03/22 07:24:11;;;;;;;59.63;40.92;;;5.60;99.90;;;;;;5029485;28;19983;-66
2022/03/22 07:26:38;;;;;;;65.28;42.38;;;5.60;99.90;;;;;;5051565;28;20057;-66
2022/03/22 07:29:04;;;;;;;59.13;39.65;;;5.90;99.90;;;;;;5028046;28;20053;-67
2022/03/22 07:31:30;;;;;;;63.13;41.83;;;6.00;99.90;;;;;;5050036;28;20041;-67
2022/03/22 07:33:56;;;;;;;61.92;40.83;;;6.00;99.90;;;;;;5025638;28;20353;-68
2022/03/22 07:36:23;;;;;;;61.58;40.00;;;6.10;99.90;;;;;;5026040;28;20056;-67
2022/03/22 07:38:49;;;;;;;57.60;38.83;;;6.20;99.90;;;;;;5016387;28;20064;-67
2022/03/22 07:41:15;;;;;;;57.60;38.10;;;6.20;99.90;;;;;;5025292;28;20041;-67
2022/03/22 07:43:41;;;;;;;55.58;39.38;;;6.30;99.90;;;;;;5047990;28;20396;-66
2022/03/22 07:46:08;;;;;;;60.38;39.88;;;6.50;99.90;;;;;;5040949;28;20084;-67
2022/03/22 07:48:34;;;;;;;58.22;40.03;;;6.60;99.90;;;;;;5015076;28;20042;-67
2022/03/22 07:53:45;;;;;;;55.55;39.80;;;6.90;99.90;;;;;;5015042;28;20125;-67
2022/03/22 07:56:11;;;;;;;60.38;38.55;;;7.00;99.90;;;;;;5024991;28;20073;-67
2022/03/22 07:58:37;;;;;;;53.67;37.80;;;7.00;99.90;;;;;;5017484;28;20038;-68
2022/03/22 08:01:04;;;;;;;56.60;38.63;;;7.20;99.90;;;;;;5041902;28;20057;-68
2022/03/22 08:03:30;;;;;;;52.35;37.13;;;7.30;99.90;;;;;;5043546;28;20054;-67
2022/03/22 08:05:56;;;;;;;54.70;38.95;;;7.30;99.90;;;;;;5042664;28;20523;-67
2022/03/22 08:08:21;;;;;;;55.75;37.65;;;7.40;99.90;;;;;;5016880;28;20057;-68
2022/03/22 08:10:47;;;;;;;54.85;37.92;;;7.60;99.90;;;;;;5023787;28;20045;-68
2022/03/22 08:13:14;;;;;;;53.55;36.70;;;7.60;99.90;;;;;;5020021;28;20046;-69
2022/03/22 08:15:40;;;;;;;54.08;36.95;;;7.80;99.90;;;;;;5036726;28;20145;-67
2022/03/22 08:18:06;;;;;;;53.17;35.92;;;7.80;99.90;;;;;;5014025;28;20072;-66
2022/03/22 08:20:32;;;;;;;52.13;35.33;;;8.10;99.90;;;;;;5020707;28;20151;-66
2022/03/22 08:23:04;;;;;;;55.63;36.88;;;8.10;99.90;;;;;;5020147;28;20049;-65
2022/03/22 08:25:38;;;;;;;51.72;36.33;;;8.10;99.90;;;;;;5029374;28;20044;-66
2022/03/22 08:28:06;;;;;;;50.75;35.47;;;8.30;99.90;;;;;;5018878;28;20517;-66
2022/03/22 08:30:33;;;;;;;53.78;34.53;;;8.30;99.90;;;;;;5038346;28;20061;-66
2022/03/22 08:33:03;;;;;;;47.67;34.35;;;8.40;99.90;;;;;;5014165;28;20052;-66
2022/03/22 08:35:29;;;;;;;;;;;8.50;99.90;;;;;;5027992;28;20048;-65
2022/03/22 08:37:55;;;;;;;51.17;34.40;;;8.60;99.90;;;;;;5047888;28;19929;-66
2022/03/22 08:40:21;;;;;;;52.38;35.30;;;8.70;99.90;;;;;;5018557;28;20143;-65
2022/03/22 08:42:49;;;;;;;49.67;34.83;;;8.70;99.90;;;;;;5023226;28;20064;-65
2022/03/22 08:45:21;;;;;;;49.40;34.53;;;8.90;99.90;;;;;;5040194;28;20091;-66
2022/03/22 08:47:48;;;;;;;49.65;33.95;;;9.00;99.90;;;;;;5008980;28;20061;-66
2022/03/22 08:50:16;;;;;;;49.50;34.90;;;9.10;99.90;;;;;;5041297;28;20041;-66
2022/03/22 08:52:42;;;;;;;49.08;34.35;;;9.20;99.90;;;;;;5013062;28;20072;-66
2022/03/22 08:55:11;;;;;;;51.72;35.00;;;9.30;99.90;;;;;;5037614;28;20053;-66
2022/03/22 08:57:39;;;;;;;47.85;33.35;;;9.40;99.90;;;;;;5031142;28;20057;-65
2022/03/22 09:00:09;;;;;;;53.00;36.00;;;9.50;99.90;;;;;;4999026;28;20481;-66
2022/03/22 09:02:44;;;;;;;;;;;9.60;99.90;;;;;;5023342;28;20046;-66
2022/03/22 09:07:58;;;;;;;45.30;32.88;;;9.80;99.90;;;;;;5024630;28;20050;-66
2022/03/22 09:10:28;;;;;;;45.42;32.90;;;10.00;99.90;;;;;;5015449;28;20049;-66
2022/03/22 09:12:55;;;;;;;45.55;32.05;;;10.10;99.90;;;;;;5020962;28;20416;-66
2022/03/22 09:15:22;;;;;;;48.20;34.10;;;10.20;99.90;;;;;;5040371;28;20115;-65
2022/03/22 09:17:49;;;;;;;48.22;32.75;;;10.40;99.90;;;;;;5036110;28;20034;-65
2022/03/22 09:20:15;;;;;;;45.78;32.40;;;10.50;99.90;;;;;;5016674;28;20044;-65
2022/03/22 09:22:47;;;;;;;46.35;31.20;;;10.60;99.90;;;;;;5025748;28;20073;-66
2022/03/22 09:25:13;;;;;;;43.95;31.92;;;10.70;99.90;;;;;;5015020;28;20056;-65
2022/03/22 09:27:43;;;;;;;43.65;30.77;;;10.80;99.90;;;;;;5023325;28;20050;-66
2022/03/22 09:30:10;;;;;;;44.88;30.52;;;11.00;99.90;;;;;;5014020;28;20053;-66
2022/03/22 09:32:36;;;;;;;46.50;31.45;;;11.10;99.90;;;;;;5023834;28;20085;-66
2022/03/22 09:35:06;;;;;;;42.63;29.17;;;11.30;99.90;;;;;;5006041;28;20115;-66
2022/03/22 09:37:36;;;;;;;41.47;28.63;;;11.50;99.90;;;;;;5024280;28;20105;-65
2022/03/22 09:40:03;;;;;;;39.45;26.45;;;11.60;99.90;;;;;;5013408;28;20056;-65
2022/03/22 09:42:30;;;;;;;37.10;25.90;;;11.80;99.90;;;;;;5025682;28;20049;-66
2022/03/22 09:44:58;;;;;;;38.92;27.10;;;11.80;99.90;;;;;;5040736;28;20065;-66
2022/03/22 09:47:24;;;;;;;38.15;26.80;;;12.00;99.90;;;;;;5013848;28;20053;-66
2022/03/22 09:49:51;;;;;;;35.05;24.95;;;12.20;99.90;;;;;;5040572;28;20080;-65
2022/03/22 09:52:18;;;;;;;33.60;24.67;;;12.40;99.90;;;;;;5046589;28;20046;-66
2022/03/22 09:54:44;;;;;;;35.83;23.10;;;12.50;99.90;;;;;;5042547;28;20259;-66
2022/03/22 09:57:10;;;;;;;34.95;23.35;;;12.60;99.90;;;;;;5043020;28;20050;-66
2022/03/22 09:59:36;;;;;;;35.10;22.77;;;12.80;99.90;;;;;;5007478;28;20076;-66
2022/03/22 10:02:06;;;;;;;32.05;22.95;;;12.90;99.90;;;;;;5030115;28;20046;-66
2022/03/22 10:04:43;;;;;;;33.78;22.00;;;13.00;99.90;;;;;;5007729;28;20069;-66
2022/03/22 10:07:18;;;;;;;34.58;22.63;;;13.20;99.90;;;;;;5023925;28;20053;-67
2022/03/22 10:09:55;;;;;;;35.03;23.00;;;13.40;99.90;;;;;;5013915;28;20099;-66
2022/03/22 10:12:35;;;;;;;35.38;22.35;;;13.50;99.90;;;;;;5013736;28;20042;-66
2022/03/22 10:15:17;;;;;;;38.33;23.80;;;13.60;99.90;;;;;;5017825;28;20088;-66
2022/03/22 10:17:44;;;;;;;34.65;24.08;;;13.60;99.90;;;;;;5032701;28;20046;-66
2022/03/22 10:20:21;;;;;;;32.28;24.38;;;13.70;99.90;;;;;;5042510;28;20219;-66
2022/03/22 10:22:55;;;;;;;35.67;24.98;;;13.80;99.90;;;;;;5018640;28;20077;-66
2022/03/22 10:25:21;;;;;;;40.13;24.48;;;13.90;99.90;;;;;;5018691;28;20056;-66
2022/03/22 10:27:47;;;;;;;38.85;25.10;;;14.00;99.90;;;;;;5026735;28;20072;-67
2022/03/22 10:30:17;;;;;;;36.30;23.95;;;14.10;99.90;;;;;;5017601;28;20048;-66
2022/03/22 10:32:44;;;;;;;36.70;25.17;;;14.20;99.90;;;;;;5030025;28;20053;-66
2022/03/22 10:35:22;;;;;;;41.95;27.50;;;14.20;99.90;;;;;;5005894;28;20071;-66
2022/03/22 10:38:09;;;;;;;35.67;25.00;;;14.40;99.90;;;;;;5036491;28;20317;-66
2022/03/22 10:40:40;;;;;;;31.38;24.60;;;14.40;99.90;;;;;;5012874;28;20077;-66
2022/03/22 10:43:26;;;;;;;32.15;23.70;;;14.40;99.90;;;;;;5019336;28;20099;-66
2022/03/22 10:46:01;;;;;;;35.42;24.15;;;14.50;99.90;;;;;;5018328;28;20049;-66
2022/03/22 10:48:36;;;;;;;36.88;24.35;;;14.60;99.90;;;;;;5018033;28;20085;-67
2022/03/22 10:51:02;;;;;;;35.35;22.92;;;14.60;99.90;;;;;;5028148;28;20065;-66
2022/03/22 10:53:30;;;;;;;35.10;23.15;;;14.70;99.90;;;;;;5049606;28;20042;-66
2022/03/22 10:55:58;;;;;;;32.05;22.55;;;14.80;99.90;;;;;;5020505;28;20061;-66
2022/03/22 10:58:26;;;;;;;30.30;21.92;;;14.80;99.90;;;;;;5021215;28;20105;-66
2022/03/22 11:00:53;;;;;;;32.25;22.17;;;15.10;99.90;;;;;;5016646;28;20649;-65
2022/03/22 11:03:19;;;;;;;36.05;21.70;;;15.10;99.90;;;;;;5022517;28;20159;-66
2022/03/22 11:05:53;;;;;;;34.75;22.08;;;15.10;99.90;;;;;;5016680;28;20597;-65
2022/03/22 11:08:24;;;;;;;31.95;21.13;;;15.20;99.90;;;;;;5027903;28;20068;-66
2022/03/22 11:10:51;;;;;;;37.40;23.95;;;15.30;99.90;;;;;;5040141;28;20076;-65
2022/03/22 11:13:17;;;;;;;32.95;22.27;;;15.30;99.90;;;;;;5024815;28;20076;-65
2022/03/22 11:15:45;;;;;;;33.60;20.90;;;15.40;99.90;;;;;;5045257;28;20272;-65
2022/03/22 11:18:14;;;;;;;31.88;21.60;;;15.70;99.90;;;;;;5017865;28;20052;-66
2022/03/22 11:20:57;;;;;;;36.55;22.38;;;15.80;99.90;;;;;;5039751;28;20099;-66
2022/03/22 11:23:24;;;;;;;37.35;22.73;;;16.00;99.90;;;;;;5048101;28;20050;-66
2022/03/22 11:25:52;;;;;;;33.20;22.35;;;15.90;99.90;;;;;;5042113;28;20048;-66
2022/03/22 11:28:23;;;;;;;32.95;21.63;;;16.00;99.90;;;;;;5017609;28;20041;-66
2022/03/22 11:30:50;;;;;;;27.50;20.55;;;16.00;99.90;;;;;;5044993;28;20045;-67
2022/03/22 11:36:15;;;;;;;33.65;22.05;;;16.20;99.90;;;;;;5009142;28;20104;-67
2022/03/22 11:38:43;;;;;;;38.95;22.08;;;16.50;99.90;;;;;;5019610;28;20484;-67
2022/03/22 11:44:22;;;;;;;33.78;21.02;;;16.50;99.90;;;;;;5050554;28;20520;-67
2022/03/22 11:47:11;;;;;;;31.77;21.77;;;16.50;99.90;;;;;;5028410;28;20548;-67
2022/03/22 11:50:05;;;;;;;37.45;20.55;;;16.60;99.90;;;;;;5016443;28;20038;-67
2022/03/22 11:52:35;;;;;;;30.70;20.60;;;16.80;99.90;;;;;;5022505;28;20049;-67
2022/03/22 11:55:02;;;;;;;34.45;21.80;;;16.80;99.90;;;;;;5010104;28;20270;-67
2022/03/22 11:57:39;;;;;;;32.13;20.85;;;16.80;99.90;;;;;;5030294;28;20089;-66
2022/03/22 12:00:05;;;;;;;36.42;20.48;;;17.00;99.90;;;;;;4993910;28;20053;-65
2022/03/22 12:02:31;;;;;;;34.92;21.65;;;17.10;99.90;;;;;;5044741;28;20046;-66
2022/03/22 12:04:57;;;;;;;32.25;21.80;;;17.40;99.90;;;;;;5007986;28;20091;-66
2022/03/22 12:07:23;;;;;;;33.20;22.10;;;17.30;99.90;;;;;;5030510;28;20057;-67
2022/03/22 12:09:49;;;;;;;33.72;21.88;;;17.40;99.90;;;;;;5016933;28;20073;-67
2022/03/22 12:12:16;;;;;;;32.83;21.83;;;17.40;99.90;;;;;;4989569;28;20115;-66
2022/03/22 12:14:48;;;;;;;34.60;21.73;;;17.50;99.90;;;;;;5048277;28;20113;-66
2022/03/22 12:17:14;;;;;;;35.92;21.75;;;17.60;99.90;;;;;;5053368;28;20062;-66
2022/03/22 12:19:40;;;;;;;33.83;22.50;;;17.80;99.90;;;;;;5054563;28;20061;-66
2022/03/22 12:22:06;;;;;;;33.50;22.30;;;18.00;99.90;;;;;;5023448;28;20222;-66
2022/03/22 12:24:33;;;;;;;34.95;23.40;;;18.20;99.10;;;;;;5047649;28;20073;-66
2022/03/22 12:27:09;;;;;;;32.92;21.77;;;18.30;99.20;;;;;;5039730;28;20056;-66
2022/03/22 12:29:40;;;;;;;35.30;22.73;;;18.30;99.50;;;;;;5047429;28;20125;-66
2022/03/22 12:32:12;;;;;;;33.70;22.98;;;18.50;97.70;;;;;;5039484;28;20069;-66
2022/03/22 12:34:39;;;;;;;35.50;21.65;;;18.50;97.40;;;;;;5045400;28;20038;-66
2022/03/22 12:37:08;;;;;;;35.65;22.75;;;18.60;97.90;;;;;;5025469;28;20046;-66
2022/03/22 12:39:36;;;;;;;35.97;21.83;;;18.80;96.60;;;;;;5014630;28;20049;-66
2022/03/22 12:42:02;;;;;;;36.88;22.77;;;18.90;97.20;;;;;;5018823;28;20057;-66
2022/03/22 12:44:28;;;;;;;35.20;23.23;;;19.00;97.50;;;;;;5048302;28;20100;-68
2022/03/22 12:46:54;;;;;;;34.17;22.98;;;19.10;95.50;;;;;;5024994;28;20536;-68
2022/03/22 12:49:21;;;;;;;36.20;22.95;;;19.30;97.20;;;;;;4998017;28;20108;-68
2022/03/22 12:51:49;;;;;;;35.85;23.35;;;19.40;94.60;;;;;;5018859;28;20057;-68
2022/03/22 12:54:18;;;;;;;34.70;22.02;;;19.50;94.80;;;;;;5000743;28;20050;-68
2022/03/22 12:56:48;;;;;;;36.77;21.77;;;19.60;95.30;;;;;;5023075;28;20045;-67
2022/03/22 12:59:22;;;;;;;34.00;22.48;;;19.90;90.90;;;;;;5015877;28;20332;-66
2022/03/22 13:01:58;;;;;;;35.38;23.08;;;20.20;87.10;;;;;;5003619;28;20049;-66
2022/03/22 13:04:26;;;;;;;38.90;22.73;;;20.30;82.60;;;;;;5044361;28;20050;-66
2022/03/22 13:06:56;;;;;;;35.53;23.88;;;20.40;80.10;;;;;;5035726;28;20052;-67
2022/03/22 13:12:12;;;;;;;30.30;21.77;;;20.40;84.60;;;;;;5035418;28;19951;-67
2022/03/22 13:17:22;;;;;;;35.22;23.27;;;21.00;84.10;;;;;;5052412;28;20092;-67
2022/03/22 13:19:48;;;;;;;35.33;21.00;;;21.60;79.20;;;;;;5046370;28;20084;-66